sensor_id;sensor_type;location;lat;lon;timestamp;P1;durP1;ratioP1;P2;durP2;ratioP2
71572;SDS011;59408;51.032;9.410;2023-04-15T00:00:55;9.10;;;4.45;;
71572;SDS011;59408;51.032;9.410;2023-04-15T00:03:21;10.03;;;4.73;;
71572;SDS011;59408;51.032;9.410;2023-04-15T00:05:48;9.68;;;4.43;;
71572;SDS011;59408;51.032;9.410;2023-04-15T00:08:15;7.72;;;4.10;;
71572;SDS011;59408;51.032;9.410;2023-04-15T00:10:43;9.25;;;4.13;;
71572;SDS011;59408;51.032;9.410;2023-04-15T00:13:10;11.23;;;4.82;;
71572;SDS011;59408;51.032;9.410;2023-04-15T00:15:36;9.33;;;4.27;;
71572;SDS011;59408;51.032;9.410;2023-04-15T00:18:03;9.80;;;4.50;;
71572;SDS011;59408;51.032;9.410;2023-04-15T00:20:29;9.25;;;4.70;;
71572;SDS011;59408;51.032;9.410;2023-04-15T00:22:56;9.60;;;4.63;;
71572;SDS011;59408;51.032;9.410;2023-04-15T00:25:23;10.52;;;5.50;;
71572;SDS011;59408;51.032;9.410;2023-04-15T00:27:51;11.83;;;5.20;;
71572;SDS011;59408;51.032;9.410;2023-04-15T00:30:17;10.02;;;4.65;;
71572;SDS011;59408;51.032;9.410;2023-04-15T00:32:44;9.63;;;4.70;;
71572;SDS011;59408;51.032;9.410;2023-04-15T00:35:13;9.20;;;4.53;;
71572;SDS011;59408;51.032;9.410;2023-04-15T00:37:39;10.55;;;5.10;;
71572;SDS011;59408;51.032;9.410;2023-04-15T00:40:07;8.57;;;4.40;;
71572;SDS011;59408;51.032;9.410;2023-04-15T00:42:38;10.50;;;4.80;;
71572;SDS011;59408;51.032;9.410;2023-04-15T00:45:06;9.98;;;4.93;;
71572;SDS011;59408;51.032;9.410;2023-04-15T00:47:34;8.30;;;4.30;;
71572;SDS011;59408;51.032;9.410;2023-04-15T00:50:01;9.93;;;4.80;;
71572;SDS011;59408;51.032;9.410;2023-04-15T00:52:28;10.77;;;5.10;;
71572;SDS011;59408;51.032;9.410;2023-04-15T00:54:54;9.88;;;4.65;;
71572;SDS011;59408;51.032;9.410;2023-04-15T00:57:21;9.95;;;5.20;;
71572;SDS011;59408;51.032;9.410;2023-04-15T00:59:48;11.48;;;5.05;;
71572;SDS011;59408;51.032;9.410;2023-04-15T01:02:16;9.68;;;4.57;;
71572;SDS011;59408;51.032;9.410;2023-04-15T01:04:43;10.50;;;4.53;;
71572;SDS011;59408;51.032;9.410;2023-04-15T01:07:10;10.73;;;4.88;;
71572;SDS011;59408;51.032;9.410;2023-04-15T01:09:46;10.10;;;5.15;;
71572;SDS011;59408;51.032;9.410;2023-04-15T01:12:13;11.07;;;4.78;;
71572;SDS011;59408;51.032;9.410;2023-04-15T01:14:40;9.95;;;4.25;;
71572;SDS011;59408;51.032;9.410;2023-04-15T01:17:06;9.63;;;4.97;;
71572;SDS011;59408;51.032;9.410;2023-04-15T01:19:34;9.85;;;4.90;;
71572;SDS011;59408;51.032;9.410;2023-04-15T01:22:01;9.70;;;4.68;;
71572;SDS011;59408;51.032;9.410;2023-04-15T01:24:28;10.70;;;5.22;;
71572;SDS011;59408;51.032;9.410;2023-04-15T01:26:58;10.80;;;4.80;;
71572;SDS011;59408;51.032;9.410;2023-04-15T01:29:25;10.90;;;4.70;;
71572;SDS011;59408;51.032;9.410;2023-04-15T01:31:52;13.15;;;5.38;;
71572;SDS011;59408;51.032;9.410;2023-04-15T01:34:20;12.90;;;6.15;;
71572;SDS011;59408;51.032;9.410;2023-04-15T01:36:47;16.52;;;6.40;;
71572;SDS011;59408;51.032;9.410;2023-04-15T01:39:13;16.45;;;5.68;;
71572;SDS011;59408;51.032;9.410;2023-04-15T01:41:40;14.17;;;6.10;;
71572;SDS011;59408;51.032;9.410;2023-04-15T01:44:08;12.77;;;6.10;;
71572;SDS011;59408;51.032;9.410;2023-04-15T01:46:35;15.57;;;6.90;;
71572;SDS011;59408;51.032;9.410;2023-04-15T01:49:01;16.90;;;6.45;;
71572;SDS011;59408;51.032;9.410;2023-04-15T01:51:28;19.30;;;7.32;;
71572;SDS011;59408;51.032;9.410;2023-04-15T01:53:55;14.77;;;6.93;;
71572;SDS011;59408;51.032;9.410;2023-04-15T01:56:22;15.73;;;6.43;;
71572;SDS011;59408;51.032;9.410;2023-04-15T01:58:48;14.27;;;6.40;;
71572;SDS011;59408;51.032;9.410;2023-04-15T02:01:17;13.05;;;5.80;;
71572;SDS011;59408;51.032;9.410;2023-04-15T02:03:43;11.57;;;4.97;;
71572;SDS011;59408;51.032;9.410;2023-04-15T02:06:10;11.53;;;4.70;;
71572;SDS011;59408;51.032;9.410;2023-04-15T02:08:37;11.80;;;5.30;;
71572;SDS011;59408;51.032;9.410;2023-04-15T02:11:03;11.02;;;5.10;;
71572;SDS011;59408;51.032;9.410;2023-04-15T02:13:30;10.60;;;4.85;;
71572;SDS011;59408;51.032;9.410;2023-04-15T02:15:57;11.55;;;4.75;;
71572;SDS011;59408;51.032;9.410;2023-04-15T02:18:25;11.37;;;5.00;;
71572;SDS011;59408;51.032;9.410;2023-04-15T02:20:52;11.02;;;5.00;;
71572;SDS011;59408;51.032;9.410;2023-04-15T02:23:18;11.10;;;4.82;;
71572;SDS011;59408;51.032;9.410;2023-04-15T02:25:45;11.88;;;5.47;;
71572;SDS011;59408;51.032;9.410;2023-04-15T02:28:19;10.63;;;5.35;;
71572;SDS011;59408;51.032;9.410;2023-04-15T02:30:46;11.97;;;5.00;;
71572;SDS011;59408;51.032;9.410;2023-04-15T02:33:13;12.02;;;4.82;;
71572;SDS011;59408;51.032;9.410;2023-04-15T02:35:41;11.48;;;4.95;;
71572;SDS011;59408;51.032;9.410;2023-04-15T02:38:07;9.73;;;4.40;;
71572;SDS011;59408;51.032;9.410;2023-04-15T02:40:34;9.82;;;5.00;;
71572;SDS011;59408;51.032;9.410;2023-04-15T02:43:01;10.03;;;4.10;;
71572;SDS011;59408;51.032;9.410;2023-04-15T02:45:27;10.45;;;4.38;;
71572;SDS011;59408;51.032;9.410;2023-04-15T02:47:54;9.13;;;4.68;;
71572;SDS011;59408;51.032;9.410;2023-04-15T02:50:20;9.20;;;4.10;;
71572;SDS011;59408;51.032;9.410;2023-04-15T02:52:48;10.15;;;4.70;;
71572;SDS011;59408;51.032;9.410;2023-04-15T02:55:15;10.83;;;5.10;;
71572;SDS011;59408;51.032;9.410;2023-04-15T02:57:41;10.50;;;5.28;;
71572;SDS011;59408;51.032;9.410;2023-04-15T03:00:08;9.63;;;4.88;;
71572;SDS011;59408;51.032;9.410;2023-04-15T03:02:35;10.25;;;5.32;;
71572;SDS011;59408;51.032;9.410;2023-04-15T03:05:03;12.18;;;5.85;;
71572;SDS011;59408;51.032;9.410;2023-04-15T03:07:31;9.57;;;4.83;;
71572;SDS011;59408;51.032;9.410;2023-04-15T03:09:59;9.48;;;4.80;;
71572;SDS011;59408;51.032;9.410;2023-04-15T03:12:25;10.38;;;5.57;;
71572;SDS011;59408;51.032;9.410;2023-04-15T03:14:52;11.95;;;6.18;;
71572;SDS011;59408;51.032;9.410;2023-04-15T03:17:18;10.95;;;5.75;;
71572;SDS011;59408;51.032;9.410;2023-04-15T03:19:45;10.73;;;5.40;;
71572;SDS011;59408;51.032;9.410;2023-04-15T03:22:12;11.80;;;5.25;;
71572;SDS011;59408;51.032;9.410;2023-04-15T03:24:38;11.40;;;4.85;;
71572;SDS011;59408;51.032;9.410;2023-04-15T03:27:06;10.68;;;4.88;;
71572;SDS011;59408;51.032;9.410;2023-04-15T03:29:33;11.00;;;5.03;;
71572;SDS011;59408;51.032;9.410;2023-04-15T03:31:59;9.63;;;4.70;;
71572;SDS011;59408;51.032;9.410;2023-04-15T03:34:26;9.93;;;5.13;;
71572;SDS011;59408;51.032;9.410;2023-04-15T03:36:53;10.35;;;5.00;;
71572;SDS011;59408;51.032;9.410;2023-04-15T03:39:19;11.35;;;5.00;;
71572;SDS011;59408;51.032;9.410;2023-04-15T03:41:46;11.27;;;5.50;;
71572;SDS011;59408;51.032;9.410;2023-04-15T03:44:13;11.90;;;5.73;;
71572;SDS011;59408;51.032;9.410;2023-04-15T03:46:40;11.35;;;5.50;;
71572;SDS011;59408;51.032;9.410;2023-04-15T03:49:07;10.75;;;5.47;;
71572;SDS011;59408;51.032;9.410;2023-04-15T03:51:33;11.88;;;5.00;;
71572;SDS011;59408;51.032;9.410;2023-04-15T03:54:00;9.68;;;4.57;;
71572;SDS011;59408;51.032;9.410;2023-04-15T03:56:27;9.10;;;4.40;;
71572;SDS011;59408;51.032;9.410;2023-04-15T03:58:53;11.23;;;4.10;;
71572;SDS011;59408;51.032;9.410;2023-04-15T04:01:21;9.82;;;4.50;;
71572;SDS011;59408;51.032;9.410;2023-04-15T04:03:48;11.00;;;4.72;;
71572;SDS011;59408;51.032;9.410;2023-04-15T04:06:15;10.07;;;4.85;;
71572;SDS011;59408;51.032;9.410;2023-04-15T04:08:41;11.13;;;5.23;;
71572;SDS011;59408;51.032;9.410;2023-04-15T04:11:08;11.13;;;4.70;;
71572;SDS011;59408;51.032;9.410;2023-04-15T04:13:35;10.93;;;5.63;;
71572;SDS011;59408;51.032;9.410;2023-04-15T04:16:01;10.43;;;4.95;;
71572;SDS011;59408;51.032;9.410;2023-04-15T04:18:29;9.65;;;5.00;;
71572;SDS011;59408;51.032;9.410;2023-04-15T04:20:56;10.67;;;5.30;;
71572;SDS011;59408;51.032;9.410;2023-04-15T04:23:23;10.85;;;5.35;;
71572;SDS011;59408;51.032;9.410;2023-04-15T04:25:50;13.32;;;5.95;;
71572;SDS011;59408;51.032;9.410;2023-04-15T04:28:17;13.07;;;5.82;;
71572;SDS011;59408;51.032;9.410;2023-04-15T04:30:43;11.13;;;5.90;;
71572;SDS011;59408;51.032;9.410;2023-04-15T04:33:10;11.77;;;5.87;;
71572;SDS011;59408;51.032;9.410;2023-04-15T04:35:38;11.10;;;5.65;;
71572;SDS011;59408;51.032;9.410;2023-04-15T04:38:05;11.23;;;5.80;;
71572;SDS011;59408;51.032;9.410;2023-04-15T04:40:31;11.73;;;5.78;;
71572;SDS011;59408;51.032;9.410;2023-04-15T04:42:58;12.50;;;5.80;;
71572;SDS011;59408;51.032;9.410;2023-04-15T04:45:25;12.17;;;5.90;;
71572;SDS011;59408;51.032;9.410;2023-04-15T04:47:51;12.02;;;5.68;;
71572;SDS011;59408;51.032;9.410;2023-04-15T04:50:18;12.75;;;5.93;;
71572;SDS011;59408;51.032;9.410;2023-04-15T04:52:46;11.32;;;5.72;;
71572;SDS011;59408;51.032;9.410;2023-04-15T04:55:12;13.10;;;5.60;;
71572;SDS011;59408;51.032;9.410;2023-04-15T04:57:39;13.13;;;5.60;;
71572;SDS011;59408;51.032;9.410;2023-04-15T05:00:06;11.75;;;5.38;;
71572;SDS011;59408;51.032;9.410;2023-04-15T05:02:33;11.82;;;5.75;;
71572;SDS011;59408;51.032;9.410;2023-04-15T05:05:00;12.23;;;5.75;;
71572;SDS011;59408;51.032;9.410;2023-04-15T05:07:26;11.30;;;5.68;;
71572;SDS011;59408;51.032;9.410;2023-04-15T05:09:55;11.27;;;5.57;;
71572;SDS011;59408;51.032;9.410;2023-04-15T05:12:21;11.30;;;6.07;;
71572;SDS011;59408;51.032;9.410;2023-04-15T05:14:48;13.95;;;6.00;;
71572;SDS011;59408;51.032;9.410;2023-04-15T05:17:14;11.88;;;5.93;;
71572;SDS011;59408;51.032;9.410;2023-04-15T05:19:41;14.23;;;6.03;;
71572;SDS011;59408;51.032;9.410;2023-04-15T05:22:07;13.90;;;6.17;;
71572;SDS011;59408;51.032;9.410;2023-04-15T05:24:34;13.07;;;6.25;;
71572;SDS011;59408;51.032;9.410;2023-04-15T05:27:02;15.55;;;6.13;;
71572;SDS011;59408;51.032;9.410;2023-04-15T05:29:28;16.42;;;6.20;;
71572;SDS011;59408;51.032;9.410;2023-04-15T05:31:55;16.92;;;6.65;;
71572;SDS011;59408;51.032;9.410;2023-04-15T05:34:22;11.73;;;5.90;;
71572;SDS011;59408;51.032;9.410;2023-04-15T05:36:48;13.63;;;6.63;;
71572;SDS011;59408;51.032;9.410;2023-04-15T05:39:15;13.95;;;6.65;;
71572;SDS011;59408;51.032;9.410;2023-04-15T05:41:41;14.65;;;6.88;;
71572;SDS011;59408;51.032;9.410;2023-04-15T05:44:09;12.73;;;6.78;;
71572;SDS011;59408;51.032;9.410;2023-04-15T05:46:36;14.77;;;6.93;;
71572;SDS011;59408;51.032;9.410;2023-04-15T05:49:02;13.32;;;6.50;;
71572;SDS011;59408;51.032;9.410;2023-04-15T05:51:29;14.57;;;7.13;;
71572;SDS011;59408;51.032;9.410;2023-04-15T05:53:56;13.18;;;7.03;;
71572;SDS011;59408;51.032;9.410;2023-04-15T05:56:22;15.57;;;8.07;;
71572;SDS011;59408;51.032;9.410;2023-04-15T05:58:49;15.70;;;7.73;;
71572;SDS011;59408;51.032;9.410;2023-04-15T06:01:20;12.48;;;6.47;;
71572;SDS011;59408;51.032;9.410;2023-04-15T06:03:46;13.23;;;7.07;;
71572;SDS011;59408;51.032;9.410;2023-04-15T06:06:13;28.90;;;14.98;;
71572;SDS011;59408;51.032;9.410;2023-04-15T06:08:40;63.97;;;34.53;;
71572;SDS011;59408;51.032;9.410;2023-04-15T06:11:06;22.90;;;12.93;;
71572;SDS011;59408;51.032;9.410;2023-04-15T06:13:33;17.75;;;8.55;;
71572;SDS011;59408;51.032;9.410;2023-04-15T06:16:00;16.90;;;8.52;;
71572;SDS011;59408;51.032;9.410;2023-04-15T06:18:28;16.25;;;8.13;;
71572;SDS011;59408;51.032;9.410;2023-04-15T06:20:54;15.00;;;7.90;;
71572;SDS011;59408;51.032;9.410;2023-04-15T06:23:21;16.67;;;7.73;;
71572;SDS011;59408;51.032;9.410;2023-04-15T06:25:48;15.60;;;8.07;;
71572;SDS011;59408;51.032;9.410;2023-04-15T06:28:14;16.40;;;8.40;;
71572;SDS011;59408;51.032;9.410;2023-04-15T06:30:41;15.55;;;8.57;;
71572;SDS011;59408;51.032;9.410;2023-04-15T06:33:07;15.75;;;8.93;;
71572;SDS011;59408;51.032;9.410;2023-04-15T06:35:35;18.97;;;9.10;;
71572;SDS011;59408;51.032;9.410;2023-04-15T06:38:02;55.17;;;23.08;;
71572;SDS011;59408;51.032;9.410;2023-04-15T06:40:29;31.20;;;15.73;;
71572;SDS011;59408;51.032;9.410;2023-04-15T06:42:55;17.83;;;8.93;;
71572;SDS011;59408;51.032;9.410;2023-04-15T06:45:22;16.55;;;8.50;;
71572;SDS011;59408;51.032;9.410;2023-04-15T06:47:48;19.23;;;8.90;;
71572;SDS011;59408;51.032;9.410;2023-04-15T06:50:15;16.58;;;8.50;;
71572;SDS011;59408;51.032;9.410;2023-04-15T06:52:43;19.23;;;9.23;;
71572;SDS011;59408;51.032;9.410;2023-04-15T06:55:10;15.90;;;8.05;;
71572;SDS011;59408;51.032;9.410;2023-04-15T06:57:36;16.17;;;8.82;;
71572;SDS011;59408;51.032;9.410;2023-04-15T07:00:03;64.20;;;30.17;;
71572;SDS011;59408;51.032;9.410;2023-04-15T07:02:30;22.63;;;10.50;;
71572;SDS011;59408;51.032;9.410;2023-04-15T07:04:57;25.35;;;13.50;;
71572;SDS011;59408;51.032;9.410;2023-04-15T07:07:23;19.75;;;10.48;;
71572;SDS011;59408;51.032;9.410;2023-04-15T07:09:52;17.35;;;9.13;;
71572;SDS011;59408;51.032;9.410;2023-04-15T07:12:18;18.63;;;8.83;;
71572;SDS011;59408;51.032;9.410;2023-04-15T07:14:45;17.95;;;9.35;;
71572;SDS011;59408;51.032;9.410;2023-04-15T07:17:12;21.33;;;11.38;;
71572;SDS011;59408;51.032;9.410;2023-04-15T07:19:38;18.98;;;9.57;;
71572;SDS011;59408;51.032;9.410;2023-04-15T07:22:05;17.55;;;9.38;;
71572;SDS011;59408;51.032;9.410;2023-04-15T07:24:32;18.47;;;8.77;;
71572;SDS011;59408;51.032;9.410;2023-04-15T07:27:00;18.60;;;8.98;;
71572;SDS011;59408;51.032;9.410;2023-04-15T07:29:27;17.98;;;9.52;;
71572;SDS011;59408;51.032;9.410;2023-04-15T07:31:53;18.63;;;8.98;;
71572;SDS011;59408;51.032;9.410;2023-04-15T07:34:20;17.23;;;9.18;;
71572;SDS011;59408;51.032;9.410;2023-04-15T07:36:47;17.90;;;9.87;;
71572;SDS011;59408;51.032;9.410;2023-04-15T07:39:13;16.15;;;8.35;;
71572;SDS011;59408;51.032;9.410;2023-04-15T07:41:40;16.65;;;8.32;;
71572;SDS011;59408;51.032;9.410;2023-04-15T07:44:08;18.88;;;9.20;;
71572;SDS011;59408;51.032;9.410;2023-04-15T07:46:34;18.80;;;9.20;;
71572;SDS011;59408;51.032;9.410;2023-04-15T07:49:01;18.17;;;8.70;;
71572;SDS011;59408;51.032;9.410;2023-04-15T07:51:28;19.73;;;9.10;;
71572;SDS011;59408;51.032;9.410;2023-04-15T07:53:55;21.13;;;9.70;;
71572;SDS011;59408;51.032;9.410;2023-04-15T07:56:21;17.70;;;8.40;;
71572;SDS011;59408;51.032;9.410;2023-04-15T07:58:48;20.15;;;8.85;;
71572;SDS011;59408;51.032;9.410;2023-04-15T08:01:16;21.57;;;9.20;;
71572;SDS011;59408;51.032;9.410;2023-04-15T08:03:42;18.75;;;8.63;;
71572;SDS011;59408;51.032;9.410;2023-04-15T08:06:09;19.73;;;9.60;;
71572;SDS011;59408;51.032;9.410;2023-04-15T08:08:36;20.75;;;9.35;;
71572;SDS011;59408;51.032;9.410;2023-04-15T08:11:02;20.50;;;9.25;;
71572;SDS011;59408;51.032;9.410;2023-04-15T08:13:29;19.43;;;8.80;;
71572;SDS011;59408;51.032;9.410;2023-04-15T08:18:41;20.35;;;8.75;;
71572;SDS011;59408;51.032;9.410;2023-04-15T08:21:07;20.60;;;9.15;;
71572;SDS011;59408;51.032;9.410;2023-04-15T08:23:34;20.00;;;8.85;;
71572;SDS011;59408;51.032;9.410;2023-04-15T08:26:00;19.30;;;8.33;;
71572;SDS011;59408;51.032;9.410;2023-04-15T08:28:27;19.55;;;8.85;;
71572;SDS011;59408;51.032;9.410;2023-04-15T08:30:54;18.25;;;8.60;;
71572;SDS011;59408;51.032;9.410;2023-04-15T08:33:20;19.55;;;8.60;;
71572;SDS011;59408;51.032;9.410;2023-04-15T08:35:48;17.90;;;8.65;;
71572;SDS011;59408;51.032;9.410;2023-04-15T08:38:15;18.53;;;8.80;;
71572;SDS011;59408;51.032;9.410;2023-04-15T08:40:42;20.08;;;9.15;;
71572;SDS011;59408;51.032;9.410;2023-04-15T08:43:11;18.55;;;8.38;;
71572;SDS011;59408;51.032;9.410;2023-04-15T08:45:40;18.30;;;8.32;;
71572;SDS011;59408;51.032;9.410;2023-04-15T08:48:07;16.25;;;8.35;;
71572;SDS011;59408;51.032;9.410;2023-04-15T08:50:35;19.40;;;8.93;;
71572;SDS011;59408;51.032;9.410;2023-04-15T08:53:02;20.35;;;9.02;;
71572;SDS011;59408;51.032;9.410;2023-04-15T08:55:31;17.70;;;7.90;;
71572;SDS011;59408;51.032;9.410;2023-04-15T08:58:01;17.35;;;7.68;;
71572;SDS011;59408;51.032;9.410;2023-04-15T09:00:28;17.77;;;8.30;;
71572;SDS011;59408;51.032;9.410;2023-04-15T09:02:56;16.97;;;7.77;;
71572;SDS011;59408;51.032;9.410;2023-04-15T09:05:24;16.40;;;7.63;;
71572;SDS011;59408;51.032;9.410;2023-04-15T09:07:51;16.85;;;8.00;;
71572;SDS011;59408;51.032;9.410;2023-04-15T09:10:19;19.38;;;8.98;;
71572;SDS011;59408;51.032;9.410;2023-04-15T09:12:45;20.75;;;9.00;;
71572;SDS011;59408;51.032;9.410;2023-04-15T09:15:12;17.33;;;8.23;;
71572;SDS011;59408;51.032;9.410;2023-04-15T09:17:41;17.92;;;7.95;;
71572;SDS011;59408;51.032;9.410;2023-04-15T09:20:09;16.95;;;8.23;;
71572;SDS011;59408;51.032;9.410;2023-04-15T09:22:37;15.77;;;7.45;;
71572;SDS011;59408;51.032;9.410;2023-04-15T09:25:07;16.73;;;7.93;;
71572;SDS011;59408;51.032;9.410;2023-04-15T09:27:52;17.67;;;7.40;;
71572;SDS011;59408;51.032;9.410;2023-04-15T09:30:20;15.75;;;7.88;;
71572;SDS011;59408;51.032;9.410;2023-04-15T09:32:48;15.60;;;7.63;;
71572;SDS011;59408;51.032;9.410;2023-04-15T09:35:15;16.35;;;7.60;;
71572;SDS011;59408;51.032;9.410;2023-04-15T09:37:42;16.17;;;8.15;;
71572;SDS011;59408;51.032;9.410;2023-04-15T09:40:09;16.07;;;6.97;;
71572;SDS011;59408;51.032;9.410;2023-04-15T09:42:41;16.77;;;7.32;;
71572;SDS011;59408;51.032;9.410;2023-04-15T09:45:20;15.05;;;6.82;;
71572;SDS011;59408;51.032;9.410;2023-04-15T09:47:47;14.38;;;6.75;;
71572;SDS011;59408;51.032;9.410;2023-04-15T09:50:14;14.77;;;7.30;;
71572;SDS011;59408;51.032;9.410;2023-04-15T09:52:54;14.60;;;6.80;;
71572;SDS011;59408;51.032;9.410;2023-04-15T09:55:21;14.60;;;6.28;;
71572;SDS011;59408;51.032;9.410;2023-04-15T09:57:49;15.20;;;7.07;;
71572;SDS011;59408;51.032;9.410;2023-04-15T10:00:16;14.23;;;6.30;;
71572;SDS011;59408;51.032;9.410;2023-04-15T10:02:42;15.43;;;6.53;;
71572;SDS011;59408;51.032;9.410;2023-04-15T10:05:10;12.67;;;5.67;;
71572;SDS011;59408;51.032;9.410;2023-04-15T10:07:40;13.13;;;5.88;;
71572;SDS011;59408;51.032;9.410;2023-04-15T10:10:07;14.23;;;6.50;;
71572;SDS011;59408;51.032;9.410;2023-04-15T10:12:35;13.73;;;6.30;;
71572;SDS011;59408;51.032;9.410;2023-04-15T10:15:04;12.25;;;5.60;;
71572;SDS011;59408;51.032;9.410;2023-04-15T10:17:32;12.17;;;5.70;;
71572;SDS011;59408;51.032;9.410;2023-04-15T10:19:59;11.70;;;5.53;;
71572;SDS011;59408;51.032;9.410;2023-04-15T10:22:27;13.30;;;6.22;;
71572;SDS011;59408;51.032;9.410;2023-04-15T10:24:54;12.63;;;5.88;;
71572;SDS011;59408;51.032;9.410;2023-04-15T10:27:21;12.48;;;5.88;;
71572;SDS011;59408;51.032;9.410;2023-04-15T10:29:49;12.13;;;5.97;;
71572;SDS011;59408;51.032;9.410;2023-04-15T10:32:18;12.88;;;5.50;;
71572;SDS011;59408;51.032;9.410;2023-04-15T10:34:46;12.77;;;5.65;;
71572;SDS011;59408;51.032;9.410;2023-04-15T10:37:19;13.02;;;6.18;;
71572;SDS011;59408;51.032;9.410;2023-04-15T10:39:46;13.55;;;5.78;;
71572;SDS011;59408;51.032;9.410;2023-04-15T10:42:14;11.47;;;5.37;;
71572;SDS011;59408;51.032;9.410;2023-04-15T10:44:42;13.20;;;5.78;;
71572;SDS011;59408;51.032;9.410;2023-04-15T10:47:11;11.75;;;5.53;;
71572;SDS011;59408;51.032;9.410;2023-04-15T10:49:43;9.63;;;4.38;;
71572;SDS011;59408;51.032;9.410;2023-04-15T10:52:14;10.52;;;4.85;;
71572;SDS011;59408;51.032;9.410;2023-04-15T10:54:41;10.20;;;4.83;;
71572;SDS011;59408;51.032;9.410;2023-04-15T10:57:13;11.40;;;5.38;;
71572;SDS011;59408;51.032;9.410;2023-04-15T11:00:00;11.20;;;5.35;;
71572;SDS011;59408;51.032;9.410;2023-04-15T11:02:40;12.52;;;5.90;;
71572;SDS011;59408;51.032;9.410;2023-04-15T11:08:10;12.93;;;5.47;;
71572;SDS011;59408;51.032;9.410;2023-04-15T11:13:20;12.63;;;5.60;;
71572;SDS011;59408;51.032;9.410;2023-04-15T11:15:48;11.00;;;5.40;;
71572;SDS011;59408;51.032;9.410;2023-04-15T11:18:15;10.98;;;5.40;;
71572;SDS011;59408;51.032;9.410;2023-04-15T11:20:43;11.47;;;5.37;;
71572;SDS011;59408;51.032;9.410;2023-04-15T11:23:13;11.13;;;5.30;;
71572;SDS011;59408;51.032;9.410;2023-04-15T11:25:41;11.50;;;6.53;;
71572;SDS011;59408;51.032;9.410;2023-04-15T11:28:09;11.02;;;5.40;;
71572;SDS011;59408;51.032;9.410;2023-04-15T11:30:37;12.00;;;5.75;;
71572;SDS011;59408;51.032;9.410;2023-04-15T11:33:05;11.30;;;5.40;;
71572;SDS011;59408;51.032;9.410;2023-04-15T11:35:33;12.70;;;5.88;;
71572;SDS011;59408;51.032;9.410;2023-04-15T11:38:01;12.38;;;5.85;;
71572;SDS011;59408;51.032;9.410;2023-04-15T11:40:30;12.27;;;5.70;;
71572;SDS011;59408;51.032;9.410;2023-04-15T11:43:03;11.65;;;5.82;;
71572;SDS011;59408;51.032;9.410;2023-04-15T11:45:31;11.27;;;5.00;;
71572;SDS011;59408;51.032;9.410;2023-04-15T11:48:04;11.70;;;5.30;;
71572;SDS011;59408;51.032;9.410;2023-04-15T11:50:31;12.55;;;5.68;;
71572;SDS011;59408;51.032;9.410;2023-04-15T11:52:59;13.90;;;5.75;;
71572;SDS011;59408;51.032;9.410;2023-04-15T11:55:27;11.05;;;5.75;;
71572;SDS011;59408;51.032;9.410;2023-04-15T11:58:11;11.23;;;5.17;;
71572;SDS011;59408;51.032;9.410;2023-04-15T12:00:44;11.23;;;5.28;;
71572;SDS011;59408;51.032;9.410;2023-04-15T12:03:12;12.02;;;5.25;;
71572;SDS011;59408;51.032;9.410;2023-04-15T12:08:48;11.50;;;5.40;;
71572;SDS011;59408;51.032;9.410;2023-04-15T12:11:16;11.33;;;5.37;;
71572;SDS011;59408;51.032;9.410;2023-04-15T12:13:44;10.85;;;4.60;;
71572;SDS011;59408;51.032;9.410;2023-04-15T12:16:12;28.65;;;12.45;;
71572;SDS011;59408;51.032;9.410;2023-04-15T12:18:43;12.52;;;6.03;;
71572;SDS011;59408;51.032;9.410;2023-04-15T12:21:10;10.52;;;4.20;;
71572;SDS011;59408;51.032;9.410;2023-04-15T12:23:37;8.60;;;3.70;;
71572;SDS011;59408;51.032;9.410;2023-04-15T12:26:05;8.82;;;4.00;;
71572;SDS011;59408;51.032;9.410;2023-04-15T12:28:33;8.90;;;4.20;;
71572;SDS011;59408;51.032;9.410;2023-04-15T12:31:01;8.40;;;3.70;;
71572;SDS011;59408;51.032;9.410;2023-04-15T12:33:32;8.93;;;3.88;;
71572;SDS011;59408;51.032;9.410;2023-04-15T12:35:59;8.20;;;3.53;;
71572;SDS011;59408;51.032;9.410;2023-04-15T12:38:26;8.25;;;3.75;;
71572;SDS011;59408;51.032;9.410;2023-04-15T12:40:52;7.93;;;3.50;;
71572;SDS011;59408;51.032;9.410;2023-04-15T12:43:19;9.82;;;3.55;;
71572;SDS011;59408;51.032;9.410;2023-04-15T12:45:45;8.02;;;3.20;;
71572;SDS011;59408;51.032;9.410;2023-04-15T12:48:13;7.47;;;3.20;;
71572;SDS011;59408;51.032;9.410;2023-04-15T12:50:40;10.25;;;4.10;;
71572;SDS011;59408;51.032;9.410;2023-04-15T12:53:07;7.20;;;2.80;;
71572;SDS011;59408;51.032;9.410;2023-04-15T12:55:33;7.03;;;3.08;;
71572;SDS011;59408;51.032;9.410;2023-04-15T12:58:00;9.65;;;4.35;;
71572;SDS011;59408;51.032;9.410;2023-04-15T13:00:26;9.17;;;4.50;;
71572;SDS011;59408;51.032;9.410;2023-04-15T13:02:53;7.05;;;2.83;;
71572;SDS011;59408;51.032;9.410;2023-04-15T13:05:21;6.57;;;2.70;;
71572;SDS011;59408;51.032;9.410;2023-04-15T13:07:48;6.95;;;2.90;;
71572;SDS011;59408;51.032;9.410;2023-04-15T13:10:15;8.20;;;3.33;;
71572;SDS011;59408;51.032;9.410;2023-04-15T13:12:41;7.67;;;2.73;;
71572;SDS011;59408;51.032;9.410;2023-04-15T13:15:08;7.43;;;3.00;;
71572;SDS011;59408;51.032;9.410;2023-04-15T13:17:36;6.68;;;2.95;;
71572;SDS011;59408;51.032;9.410;2023-04-15T13:20:03;7.68;;;2.65;;
71572;SDS011;59408;51.032;9.410;2023-04-15T13:22:32;7.18;;;2.97;;
71572;SDS011;59408;51.032;9.410;2023-04-15T13:24:59;7.90;;;3.30;;
71572;SDS011;59408;51.032;9.410;2023-04-15T13:27:25;7.63;;;2.80;;
71572;SDS011;59408;51.032;9.410;2023-04-15T13:29:52;7.97;;;2.85;;
71572;SDS011;59408;51.032;9.410;2023-04-15T13:32:19;7.40;;;2.92;;
71572;SDS011;59408;51.032;9.410;2023-04-15T13:34:46;10.63;;;6.05;;
71572;SDS011;59408;51.032;9.410;2023-04-15T13:37:12;10.00;;;4.60;;
71572;SDS011;59408;51.032;9.410;2023-04-15T13:39:40;6.40;;;2.70;;
71572;SDS011;59408;51.032;9.410;2023-04-15T13:42:07;7.57;;;3.28;;
71572;SDS011;59408;51.032;9.410;2023-04-15T13:44:33;8.00;;;3.90;;
71572;SDS011;59408;51.032;9.410;2023-04-15T13:47:00;6.93;;;2.92;;
71572;SDS011;59408;51.032;9.410;2023-04-15T13:49:26;7.83;;;3.43;;
71572;SDS011;59408;51.032;9.410;2023-04-15T13:51:53;7.72;;;3.53;;
71572;SDS011;59408;51.032;9.410;2023-04-15T13:54:19;7.25;;;3.67;;
71572;SDS011;59408;51.032;9.410;2023-04-15T13:56:47;6.85;;;2.80;;
71572;SDS011;59408;51.032;9.410;2023-04-15T13:59:14;6.50;;;2.45;;
71572;SDS011;59408;51.032;9.410;2023-04-15T14:01:40;6.63;;;2.80;;
71572;SDS011;59408;51.032;9.410;2023-04-15T14:04:07;6.90;;;3.28;;
71572;SDS011;59408;51.032;9.410;2023-04-15T14:06:35;7.70;;;3.33;;
71572;SDS011;59408;51.032;9.410;2023-04-15T14:09:01;7.72;;;3.10;;
71572;SDS011;59408;51.032;9.410;2023-04-15T14:11:28;7.70;;;3.20;;
71572;SDS011;59408;51.032;9.410;2023-04-15T14:13:56;6.53;;;2.90;;
71572;SDS011;59408;51.032;9.410;2023-04-15T14:16:23;6.25;;;2.67;;
71572;SDS011;59408;51.032;9.410;2023-04-15T14:18:49;8.25;;;3.65;;
71572;SDS011;59408;51.032;9.410;2023-04-15T14:21:16;7.53;;;3.15;;
71572;SDS011;59408;51.032;9.410;2023-04-15T14:23:43;6.10;;;2.83;;
71572;SDS011;59408;51.032;9.410;2023-04-15T14:26:09;8.03;;;3.37;;
71572;SDS011;59408;51.032;9.410;2023-04-15T14:28:36;8.35;;;3.33;;
71572;SDS011;59408;51.032;9.410;2023-04-15T14:31:04;8.40;;;4.10;;
71572;SDS011;59408;51.032;9.410;2023-04-15T14:33:31;7.93;;;3.10;;
71572;SDS011;59408;51.032;9.410;2023-04-15T14:35:57;9.63;;;4.55;;
71572;SDS011;59408;51.032;9.410;2023-04-15T14:38:24;9.57;;;4.37;;
71572;SDS011;59408;51.032;9.410;2023-04-15T14:40:50;8.68;;;3.60;;
71572;SDS011;59408;51.032;9.410;2023-04-15T14:43:17;8.27;;;3.88;;
71572;SDS011;59408;51.032;9.410;2023-04-15T14:45:43;7.07;;;3.05;;
71572;SDS011;59408;51.032;9.410;2023-04-15T14:48:12;9.50;;;3.80;;
71572;SDS011;59408;51.032;9.410;2023-04-15T14:50:39;8.10;;;3.50;;